Time;durP1;ratioP1;P1;durP2;ratioP2;P2;SDS_P1;SDS_P2;PMS_P1;PMS_P2;Temp;Humidity;BMP_temperature;BMP_pressure;BME280_temperature;BME280_humidity;BME280_pressure;Samples;Min_cycle;Max_cycle;Signal;HPM_P1;HPM_P2
2023/03/11 12:55:36;;;;;;;9.70;8.10;;;;;;;1.02;81.83;97913.91;100066;1291;636658;-64
2023/03/11 12:58:58;;;;;;;11.00;8.70;;;;;;;1.03;81.56;97922.45;102867;1260;94443;-64
2023/03/11 13:01:54;;;;;;;9.60;8.40;;;;;;;1.01;81.70;97937.75;101987;1264;1002925;-63
2023/03/11 13:04:36;;;;;;;11.70;9.20;;;;;;;0.99;81.98;97940.57;102717;1264;94380;-63
2023/03/11 13:07:37;;;;;;;11.90;8.70;;;;;;;0.94;81.90;97950.10;103489;1257;107304;-63
2023/03/11 13:10:15;;;;;;;10.20;8.70;;;;;;;0.86;81.82;97942.98;103165;1255;297371;-64
2023/03/11 13:12:46;;;;;;;12.40;8.10;;;;;;;0.79;81.88;97959.29;103337;1257;137299;-64
2023/03/11 13:15:36;;;;;;;10.70;8.60;;;;;;;0.72;82.19;97963.41;104176;1251;109609;-66
2023/03/11 13:18:23;;;;;;;11.30;9.10;;;;;;;0.67;82.36;97982.03;102699;1253;1002994;-66
2023/03/11 13:21:40;;;;;;;11.20;9.00;;;;;;;0.63;82.82;97990.38;102900;1250;1003336;-65
2023/03/11 13:24:50;;;;;;;10.80;8.40;;;;;;;0.60;82.84;97991.80;103439;1253;138166;-65
2023/03/11 13:27:28;;;;;;;13.30;9.90;;;;;;;0.58;82.99;98005.88;103552;1254;95048;-66
2023/03/11 13:30:24;;;;;;;13.30;9.70;;;;;;;0.58;83.20;98008.11;103463;1251;137179;-68
2023/03/11 13:33:10;;;;;;;12.00;9.30;;;;;;;0.54;83.14;98024.46;102893;1251;1015502;-66
2023/03/11 13:35:58;;;;;;;11.60;9.10;;;;;;;0.51;83.25;98030.34;103586;1251;137615;-69
2023/03/11 13:38:48;;;;;;;11.80;9.00;;;;;;;0.48;83.36;98031.81;102731;1253;1003484;-70
2023/03/11 13:41:32;;;;;;;11.50;9.00;;;;;;;0.43;83.14;98053.48;103584;1251;137584;-68
2023/03/11 13:44:21;;;;;;;13.50;9.10;;;;;;;0.43;83.44;98062.88;103479;1251;107756;-68
2023/03/11 13:46:57;;;;;;;11.50;8.90;;;;;;;0.43;83.47;98073.48;103389;1249;137765;-72
2023/03/11 13:49:37;;;;;;;12.70;9.50;;;;;;;0.42;83.41;98077.62;102690;1251;1002503;-71
2023/03/11 13:52:24;;;;;;;11.30;9.10;;;;;;;0.39;83.70;98078.55;103418;1251;107475;-71
2023/03/11 13:55:34;;;;;;;12.60;9.00;;;;;;;0.33;83.50;98094.95;103235;1254;95119;-72
2023/03/11 13:58:16;;;;;;;12.20;9.40;;;;;;;0.28;83.73;98102.94;103290;1254;107729;-70
2023/03/11 14:00:53;;;;;;;13.50;9.40;;;;;;;0.25;83.81;98107.27;103304;1254;137237;-70
2023/03/11 14:03:45;;;;;;;12.30;9.40;;;;;;;0.23;83.88;98116.21;103295;1251;108290;-70
2023/03/11 14:06:15;;;;;;;12.40;9.80;;;;;;;0.23;83.89;98115.71;103067;1251;137400;-70
2023/03/11 14:08:54;;;;;;;14.30;9.40;;;;;;;0.21;83.76;98125.34;103324;1254;95737;-70
2023/03/11 14:11:29;;;;;;;12.10;8.10;;;;;;;0.19;83.54;98115.98;103304;1251;137253;-70
2023/03/11 14:14:30;;;;;;;14.70;8.70;;;;;;;0.18;82.97;98137.36;102681;1254;1003092;-70
2023/03/11 14:17:20;;;;;;;10.60;7.40;;;;;;;0.18;82.72;98138.05;103201;1254;138546;-69
2023/03/11 14:20:15;;;;;;;10.40;7.80;;;;;;;0.18;82.55;98151.38;103431;1251;108264;-69
2023/03/11 14:22:49;;;;;;;10.80;8.10;;;;;;;0.18;82.48;98157.36;103405;1254;138202;-65
2023/03/11 14:25:37;;;;;;;12.10;8.80;;;;;;;0.18;82.33;98158.89;103480;1254;108749;-67
2023/03/11 14:28:06;;;;;;;11.70;8.90;;;;;;;0.16;82.03;98163.55;103759;1251;95166;-69
2023/03/11 14:31:00;;;;;;;10.80;8.70;;;;;;;0.15;81.81;98164.09;103129;1251;137249;-71
2023/03/11 14:33:37;;;;;;;15.40;9.20;;;;;;;0.12;81.73;98185.16;102505;1251;1002857;-69
2023/03/11 14:36:14;;;;;;;14.40;9.50;;;;;;;0.14;81.73;98186.67;103269;1251;137825;-69
2023/03/11 14:39:02;;;;;;;15.20;8.50;;;;;;;0.14;81.14;98188.38;103426;1251;109067;-66
2023/03/11 14:41:52;;;;;;;13.60;8.50;;;;;;;0.13;80.57;98191.48;103298;1251;137850;-71
2023/03/11 14:44:43;;;;;;;10.10;7.20;;;;;;;0.11;80.19;98191.54;103433;1251;108623;-68
2023/03/11 14:47:37;;;;;;;11.20;7.00;;;;;;;0.11;79.77;98203.15;103285;1254;137608;-73
2023/03/11 14:50:15;;;;;;;9.90;7.20;;;;;;;0.15;80.40;98215.87;103475;1251;95708;-74
2023/03/11 14:52:57;;;;;;;9.70;6.90;;;;;;;0.23;80.35;98221.33;103215;1254;138987;-69
2023/03/11 14:55:39;;;;;;;11.60;7.30;;;;;;;0.33;80.07;98229.97;103465;1254;95155;-74
2023/03/11 14:58:33;;;;;;;9.20;6.70;;;;;;;0.43;79.60;98228.22;103389;1251;109313;-73
2023/03/11 15:01:25;;;;;;;8.40;6.20;;;;;;;0.49;79.13;98247.39;103452;1251;108853;-78
2023/03/11 15:04:18;;;;;;;10.90;6.50;;;;;;;0.52;78.66;98249.17;103395;1251;95141;-79
2023/03/11 15:07:01;;;;;;;9.10;5.70;;;;;;;0.55;78.52;98257.84;103294;1251;137066;-80
2023/03/11 15:09:50;;;;;;;8.10;6.20;;;;;;;0.59;78.23;98255.02;103495;1253;95096;-72
2023/03/11 15:12:36;;;;;;;9.10;5.50;;;;;;;0.62;77.53;98262.31;102720;1253;1002501;-71
2023/03/11 15:15:28;;;;;;;9.40;6.00;;;;;;;0.62;77.29;98273.77;103457;1251;106777;-70
2023/03/11 15:18:01;;;;;;;11.10;6.30;;;;;;;0.64;76.78;98279.88;103687;1253;137348;-68
2023/03/11 15:21:14;;;;;;;7.80;5.80;;;;;;;0.65;77.06;98293.35;102805;1251;1002917;-77
2023/03/11 15:23:47;;;;;;;8.90;5.50;;;;;;;0.69;76.83;98298.39;102701;1251;1003016;-75
2023/03/11 15:26:22;;;;;;;6.60;5.20;;;;;;;0.72;76.09;98286.00;103458;1250;1002943;-73
2023/03/11 15:28:56;;;;;;;7.10;4.50;;;;;;;0.74;75.34;98296.59;103100;1251;137569;-73
2023/03/11 15:31:34;;;;;;;8.20;4.90;;;;;;;0.75;74.91;98301.02;103510;1250;94982;-73
2023/03/11 15:34:30;;;;;;;9.70;4.80;;;;;;;0.75;74.94;98316.38;103406;1253;108097;-74
2023/03/11 15:37:24;;;;;;;6.40;4.50;;;;;;;0.76;74.24;98310.73;103525;1253;95121;-73
2023/03/11 15:39:57;;;;;;;7.50;4.50;;;;;;;0.72;72.92;98313.03;103031;1250;1002911;-70
2023/03/11 15:42:29;;;;;;;7.80;4.50;;;;;;;0.66;72.97;98332.84;103292;1254;137740;-70
2023/03/11 15:45:09;;;;;;;5.80;4.40;;;;;;;0.61;73.36;98337.05;103268;1254;95600;-71
2023/03/11 15:47:46;;;;;;;6.70;4.40;;;;;;;0.58;73.40;98343.46;103090;1256;137624;-71
2023/03/11 15:50:24;;;;;;;7.20;4.40;;;;;;;0.55;73.40;98354.98;103253;1253;95170;-71
2023/03/11 15:53:09;;;;;;;7.90;4.70;;;;;;;0.52;73.26;98356.23;103063;1254;137571;-72
2023/03/11 15:56:00;;;;;;;11.50;4.80;;;;;;;0.48;73.04;98370.52;103288;1254;107757;-71
2023/03/11 15:58:34;;;;;;;7.80;4.80;;;;;;;0.45;73.29;98372.82;103265;1254;95205;-71
2023/03/11 16:01:07;;;;;;;6.90;4.40;;;;;;;0.44;73.40;98385.66;103192;1254;137158;-71
2023/03/11 16:03:35;;;;;;;7.10;4.40;;;;;;;0.42;73.07;98380.40;103200;1256;95105;-71
2023/03/11 16:06:12;;;;;;;7.80;4.50;;;;;;;0.41;73.05;98395.13;102450;1256;1002809;-71
2023/03/11 16:08:43;;;;;;;6.70;4.50;;;;;;;0.39;72.89;98400.98;103235;1254;108820;-70
2023/03/11 16:11:13;;;;;;;6.50;4.10;;;;;;;0.39;73.00;98404.76;103028;1256;137674;-70
2023/03/11 16:13:50;;;;;;;6.10;4.10;;;;;;;0.36;72.18;98407.20;102667;1254;1003092;-70
2023/03/11 16:16:19;;;;;;;7.90;4.60;;;;;;;0.33;72.17;98416.64;103179;1254;94984;-70
2023/03/11 16:19:07;;;;;;;7.00;4.20;;;;;;;0.32;72.45;98428.98;102931;1256;137256;-70
2023/03/11 16:21:38;;;;;;;6.00;3.90;;;;;;;0.32;72.53;98437.70;103175;1256;107759;-72
2023/03/11 16:24:15;;;;;;;6.60;3.80;;;;;;;0.32;72.56;98444.88;102457;1253;1002910;-72
2023/03/11 16:26:42;;;;;;;6.50;4.10;;;;;;;0.31;72.42;98442.33;103422;1253;108380;-72
2023/03/11 16:29:14;;;;;;;8.90;4.10;;;;;;;0.30;72.42;98449.70;103198;1256;137562;-70
2023/03/11 16:31:48;;;;;;;5.90;3.70;;;;;;;0.30;72.52;98455.67;103304;1256;107824;-70
2023/03/11 16:34:16;;;;;;;7.10;4.50;;;;;;;0.30;72.21;98455.85;103225;1256;107798;-71
2023/03/11 16:36:43;;;;;;;7.00;4.40;;;;;;;0.27;72.22;98465.15;102344;1253;1003133;-73
2023/03/11 16:39:13;;;;;;;8.40;5.10;;;;;;;0.24;72.40;98474.61;103156;1253;106781;-70
2023/03/11 16:41:44;;;;;;;10.00;5.30;;;;;;;0.22;72.81;98486.96;103014;1253;137512;-70
2023/03/11 16:44:15;;;;;;;9.60;5.00;;;;;;;0.22;73.05;98494.83;103293;1253;107680;-71
2023/03/11 16:47:02;;;;;;;8.00;5.20;;;;;;;0.20;73.30;98500.34;103191;1253;137724;-70
2023/03/11 16:49:32;;;;;;;8.40;5.00;;;;;;;0.17;73.44;98497.63;103373;1253;95182;-70
2023/03/11 16:51:59;;;;;;;7.40;4.90;;;;;;;0.14;73.59;98510.19;103327;1253;108384;-70
2023/03/11 16:54:27;;;;;;;9.50;5.30;;;;;;;0.11;73.78;98519.64;103218;1251;137656;-71
2023/03/11 16:56:54;;;;;;;8.70;5.00;;;;;;;0.07;74.01;98525.00;102573;1255;1003265;-70
2023/03/11 16:59:22;;;;;;;9.10;6.30;;;;;;;0.03;74.29;98520.11;103222;1253;137805;-71
2023/03/11 17:02:11;;;;;;;7.80;5.40;;;;;;;-0.01;74.38;98534.18;103198;1254;95007;-71
2023/03/11 17:04:41;;;;;;;7.30;4.90;;;;;;;-0.04;74.60;98539.53;103307;1251;107581;-70
2023/03/11 17:07:23;;;;;;;8.90;5.40;;;;;;;-0.06;74.61;98548.80;103129;1256;95093;-71
2023/03/11 17:10:00;;;;;;;9.20;5.70;;;;;;;-0.08;74.79;98558.39;103149;1254;108989;-71
2023/03/11 17:12:48;;;;;;;9.90;6.00;;;;;;;-0.09;74.72;98564.23;103112;1256;137753;-71
2023/03/11 17:15:15;;;;;;;11.40;5.70;;;;;;;-0.11;74.87;98565.45;102547;1251;1002932;-72
2023/03/11 17:18:04;;;;;;;9.70;5.60;;;;;;;-0.12;74.99;98573.83;102914;1253;137978;-71
2023/03/11 17:20:38;;;;;;;7.90;5.50;;;;;;;-0.13;74.93;98581.72;102453;1254;1003174;-71
2023/03/11 17:23:26;;;;;;;9.00;5.20;;;;;;;-0.15;75.08;98583.63;103058;1253;138023;-69
2023/03/11 17:25:56;;;;;;;8.90;5.90;;;;;;;-0.17;75.13;98590.33;102522;1257;1003158;-70
2023/03/11 17:28:30;;;;;;;8.00;5.30;;;;;;;-0.18;75.21;98595.47;103207;1252;96447;-68
2023/03/11 17:30:58;;;;;;;8.80;5.30;;;;;;;-0.18;75.34;98600.91;103245;1254;137681;-68
2023/03/11 17:33:31;;;;;;;8.20;5.10;;;;;;;-0.18;75.57;98607.77;102588;1253;1002446;-68
2023/03/11 17:36:04;;;;;;;9.30;5.50;;;;;;;-0.19;75.46;98608.77;103056;1254;138777;-71
2023/03/11 17:38:45;;;;;;;7.60;5.10;;;;;;;-0.18;75.64;98618.33;103390;1253;107826;-67
2023/03/11 17:41:21;;;;;;;9.90;5.80;;;;;;;-0.17;75.75;98622.96;102608;1256;1003092;-69
2023/03/11 17:43:59;;;;;;;8.70;5.00;;;;;;;-0.16;75.61;98625.84;103271;1253;108185;-69
2023/03/11 17:46:46;;;;;;;10.60;5.40;;;;;;;-0.17;75.70;98635.42;102251;1254;1003193;-69
2023/03/11 17:49:24;;;;;;;8.00;4.60;;;;;;;-0.17;75.75;98635.94;103266;1256;109827;-69
2023/03/11 17:51:51;;;;;;;8.50;5.10;;;;;;;-0.17;75.65;98637.30;103425;1255;108630;-68
2023/03/11 17:54:19;;;;;;;10.20;5.60;;;;;;;-0.17;75.74;98642.08;103387;1251;137845;-68
2023/03/11 17:56:59;;;;;;;10.40;5.30;;;;;;;-0.18;75.64;98649.94;103095;1251;107955;-68
2023/03/11 17:59:27;;;;;;;12.90;5.80;;;;;;;-0.17;75.75;98660.02;103372;1255;138369;-68
2023/03/11 18:02:12;;;;;;;11.10;6.20;;;;;;;-0.17;75.72;98662.40;102697;1254;1003311;-68
2023/03/11 18:04:53;;;;;;;13.30;7.20;;;;;;;-0.17;75.56;98664.10;103476;1251;109074;-68
2023/03/11 18:07:24;;;;;;;9.20;5.40;;;;;;;-0.16;75.14;98663.77;103359;1255;96425;-68
2023/03/11 18:10:14;;;;;;;9.90;4.90;;;;;;;-0.18;75.13;98671.98;103334;1251;108350;-68
2023/03/11 18:12:50;;;;;;;8.10;4.80;;;;;;;-0.19;74.90;98674.71;103328;1255;138034;-68
2023/03/11 18:15:28;;;;;;;9.00;4.60;;;;;;;-0.21;74.60;98674.91;103441;1251;109946;-68
2023/03/11 18:17:59;;;;;;;8.60;4.70;;;;;;;-0.24;74.36;98683.84;103236;1253;138043;-68
2023/03/11 18:20:27;;;;;;;7.80;4.30;;;;;;;-0.27;74.10;98682.69;103368;1251;96453;-68
2023/03/11 18:23:06;;;;;;;8.40;4.50;;;;;;;-0.29;74.10;98692.98;103126;1251;137837;-70
2023/03/11 18:25:33;;;;;;;8.60;4.80;;;;;;;-0.31;74.09;98702.73;103356;1254;96341;-68
2023/03/11 18:28:02;;;;;;;8.70;4.40;;;;;;;-0.34;73.85;98706.02;103502;1251;109327;-67
2023/03/11 18:30:41;;;;;;;6.90;4.50;;;;;;;-0.37;73.68;98710.82;103289;1251;140421;-68
2023/03/11 18:33:11;;;;;;;10.50;4.10;;;;;;;-0.40;73.29;98707.95;102939;1251;1002503;-70
2023/03/11 18:35:59;;;;;;;7.50;4.40;;;;;;;-0.44;73.23;98722.54;102336;1252;1002821;-70
2023/03/11 18:38:30;;;;;;;7.80;4.30;;;;;;;-0.49;73.21;98730.28;102693;1254;1003642;-70
2023/03/11 18:41:18;;;;;;;7.10;4.20;;;;;;;-0.52;73.18;98734.24;103259;1251;138351;-69
2023/03/11 18:43:58;;;;;;;7.10;4.00;;;;;;;-0.55;72.94;98735.98;103264;1253;107523;-69
2023/03/11 18:46:36;;;;;;;6.40;4.20;;;;;;;-0.59;72.92;98739.27;103322;1253;96869;-68
2023/03/11 18:49:24;;;;;;;9.10;4.50;;;;;;;-0.62;73.11;98743.23;103433;1255;108058;-68
2023/03/11 18:52:03;;;;;;;7.00;3.90;;;;;;;-0.64;72.78;98751.78;102621;1254;1003359;-69
2023/03/11 18:54:50;;;;;;;11.20;4.10;;;;;;;-0.68;72.93;98751.67;103705;1254;138600;-68
2023/03/11 18:57:21;;;;;;;8.20;4.50;;;;;;;-0.70;72.89;98757.85;103354;1251;108427;-68
2023/03/11 18:59:50;;;;;;;7.90;4.00;;;;;;;-0.73;72.71;98762.63;103314;1251;138301;-68
2023/03/11 19:02:20;;;;;;;7.80;4.00;;;;;;;-0.75;72.85;98771.69;103376;1250;107674;-68
2023/03/11 19:05:09;;;;;;;10.40;4.20;;;;;;;-0.77;72.79;98775.64;103272;1255;138149;-69
2023/03/11 19:07:47;;;;;;;8.70;4.80;;;;;;;-0.79;72.86;98779.08;103431;1253;110109;-69
2023/03/11 19:10:24;;;;;;;10.10;4.00;;;;;;;-0.81;72.72;98780.13;102619;1255;1002975;-68
2023/03/11 19:13:12;;;;;;;7.60;3.80;;;;;;;-0.83;72.63;98781.86;103305;1256;138133;-68
2023/03/11 19:15:52;;;;;;;9.80;4.30;;;;;;;-0.86;72.61;98788.89;102617;1251;1002919;-68
2023/03/11 19:18:40;;;;;;;8.00;3.70;;;;;;;-0.87;72.76;98791.80;103198;1255;138057;-69
2023/03/11 19:21:15;;;;;;;;;;;;;;;-0.89;72.65;98795.40;103356;1255;108149;-70
2023/03/11 19:24:03;;;;;;;7.30;3.40;;;;;;;-0.91;72.83;98796.08;103262;1256;124236;-70
2023/03/11 19:26:50;;;;;;;8.80;4.00;;;;;;;-0.93;72.96;98800.88;101852;1253;1003762;-69
2023/03/11 19:29:22;;;;;;;9.80;3.70;;;;;;;-0.94;72.86;98814.02;103305;1251;138420;-69
2023/03/11 19:32:10;;;;;;;6.60;3.80;;;;;;;-0.96;72.78;98817.64;103328;1256;96424;-69
2023/03/11 19:34:40;;;;;;;8.50;3.70;;;;;;;-0.97;73.01;98828.38;103447;1251;110151;-69
2023/03/11 19:37:07;;;;;;;9.50;3.70;;;;;;;-0.99;72.81;98829.94;103190;1251;139609;-69
2023/03/11 19:39:35;;;;;;;7.00;3.80;;;;;;;-0.99;72.84;98830.80;103414;1252;96962;-69
2023/03/11 19:42:05;;;;;;;6.40;3.70;;;;;;;-1.02;72.63;98834.24;103327;1253;137858;-69
2023/03/11 19:44:32;;;;;;;6.30;3.90;;;;;;;-1.05;72.66;98835.29;103479;1254;96527;-70
2023/03/11 19:47:00;;;;;;;7.80;4.40;;;;;;;-1.05;72.88;98844.17;103750;1254;109896;-70
2023/03/11 19:49:29;;;;;;;6.50;3.90;;;;;;;-1.07;72.99;98846.57;103370;1253;107052;-69
2023/03/11 19:52:00;;;;;;;9.60;3.70;;;;;;;-1.09;72.87;98850.30;102512;1251;1003266;-69
2023/03/11 19:54:45;;;;;;;9.40;4.10;;;;;;;-1.10;72.88;98860.22;103278;1256;138406;-69
2023/03/11 19:57:32;;;;;;;7.10;3.90;;;;;;;-1.13;72.95;98858.88;102725;1253;1003693;-68
2023/03/11 20:00:21;;;;;;;8.90;4.00;;;;;;;-1.14;73.05;98860.26;103439;1256;138160;-68
2023/03/11 20:03:01;;;;;;;10.40;4.50;;;;;;;-1.16;72.94;98861.81;102846;1255;1003046;-69
2023/03/11 20:05:31;;;;;;;9.40;4.40;;;;;;;-1.17;73.29;98864.89;103530;1252;138448;-68
2023/03/11 20:07:58;;;;;;;11.20;4.80;;;;;;;-1.19;73.05;98872.91;103385;1253;107915;-67
2023/03/11 20:10:48;;;;;;;7.30;4.40;;;;;;;-1.19;73.31;98874.80;103324;1252;96490;-68
2023/03/11 20:13:26;;;;;;;11.30;5.10;;;;;;;-1.22;73.53;98872.60;102975;1253;1002740;-67
2023/03/11 20:15:53;;;;;;;10.90;5.20;;;;;;;-1.24;73.69;98872.10;103285;1256;107358;-68
2023/03/11 20:18:41;;;;;;;9.40;4.70;;;;;;;-1.25;73.66;98875.02;102448;1252;1003209;-69
2023/03/11 20:21:17;;;;;;;9.50;5.30;;;;;;;-1.27;73.70;98881.14;103226;1253;106453;-69
2023/03/11 20:23:47;;;;;;;10.60;5.40;;;;;;;-1.28;73.70;98882.17;102522;1254;1005339;-69
2023/03/11 20:26:35;;;;;;;12.00;5.80;;;;;;;-1.29;73.79;98888.66;103019;1252;110161;-69
2023/03/11 20:29:16;;;;;;;12.90;5.90;;;;;;;-1.31;73.92;98887.98;102352;1256;1003739;-69
2023/03/11 20:31:44;;;;;;;8.90;5.40;;;;;;;-1.32;73.78;98892.09;103473;1251;96953;-69
2023/03/11 20:34:12;;;;;;;10.30;5.90;;;;;;;-1.32;73.86;98898.40;103386;1252;108144;-69
2023/03/11 20:36:40;;;;;;;10.90;5.60;;;;;;;-1.34;73.87;98903.36;103191;1255;138663;-69
2023/03/11 20:39:08;;;;;;;11.80;5.70;;;;;;;-1.34;74.02;98908.30;103319;1256;110561;-69
2023/03/11 20:41:38;;;;;;;14.50;6.10;;;;;;;-1.34;74.05;98912.57;102527;1251;1015390;-69
2023/03/11 20:44:11;;;;;;;15.30;7.60;;;;;;;-1.34;74.09;98914.27;102715;1250;1002720;-69
2023/03/11 20:46:39;;;;;;;18.30;8.10;;;;;;;-1.34;73.99;98916.83;103324;1253;108036;-69
2023/03/11 20:49:06;;;;;;;17.50;7.50;;;;;;;-1.35;74.00;98918.20;102567;1253;1002922;-70
2023/03/11 20:51:46;;;;;;;15.50;8.00;;;;;;;-1.35;74.10;98923.83;103489;1251;110203;-69
2023/03/11 20:54:14;;;;;;;16.30;7.50;;;;;;;-1.36;74.12;98920.26;103252;1253;138221;-69
2023/03/11 20:56:47;;;;;;;15.80;8.00;;;;;;;-1.35;74.14;98926.73;103312;1256;96450;-68
2023/03/11 20:59:15;;;;;;;13.50;7.20;;;;;;;-1.34;74.26;98925.35;101774;1253;1003793;-69
2023/03/11 21:01:45;;;;;;;16.20;7.90;;;;;;;-1.31;74.22;98930.11;102593;1256;1002821;-68
2023/03/11 21:04:34;;;;;;;14.30;7.40;;;;;;;-1.27;74.40;98929.23;102562;1253;1002722;-69
2023/03/11 21:07:01;;;;;;;15.50;7.40;;;;;;;-1.25;74.28;98928.39;102360;1253;1003683;-68
2023/03/11 21:09:29;;;;;;;15.70;7.80;;;;;;;-1.21;74.32;98927.51;102725;1256;1002677;-68
2023/03/11 21:11:56;;;;;;;13.40;7.30;;;;;;;-1.17;74.39;98928.50;102577;1256;1002658;-69
2023/03/11 21:14:24;;;;;;;12.70;7.00;;;;;;;-1.15;74.46;98926.77;103453;1253;95126;-70
2023/03/11 21:16:51;;;;;;;13.60;7.30;;;;;;;-1.13;74.57;98932.40;103544;1255;108854;-70
2023/03/11 21:19:29;;;;;;;13.30;7.40;;;;;;;-1.12;74.46;98932.73;103450;1255;109427;-70
2023/03/11 21:21:56;;;;;;;19.90;8.10;;;;;;;-1.12;74.55;98937.33;102742;1256;1003095;-70
2023/03/11 21:24:24;;;;;;;16.30;7.90;;;;;;;-1.10;74.63;98939.36;102659;1253;1003469;-70
2023/03/11 21:26:51;;;;;;;16.50;7.80;;;;;;;-1.08;74.58;98941.57;102801;1251;1003495;-70
2023/03/11 21:29:18;;;;;;;12.40;7.30;;;;;;;-1.07;74.56;98945.33;103422;1254;138725;-70
2023/03/11 21:31:46;;;;;;;11.60;6.80;;;;;;;-1.07;74.56;98945.34;103570;1251;107585;-70
2023/03/11 21:34:16;;;;;;;15.00;7.20;;;;;;;-1.06;74.63;98946.02;102774;1255;1002584;-70
2023/03/11 21:36:47;;;;;;;12.00;6.50;;;;;;;-1.08;74.68;98946.02;102480;1251;1003569;-69
2023/03/11 21:39:14;;;;;;;14.30;7.20;;;;;;;-1.10;74.72;98950.96;103454;1251;96435;-70
2023/03/11 21:41:42;;;;;;;10.10;6.10;;;;;;;-1.12;74.74;98956.27;103379;1251;138341;-70
2023/03/11 21:44:12;;;;;;;12.70;6.80;;;;;;;-1.14;74.81;98954.23;102530;1251;1003385;-70
2023/03/11 21:46:50;;;;;;;14.90;7.80;;;;;;;-1.16;74.89;98959.19;103505;1253;96450;-70
2023/03/11 21:49:17;;;;;;;12.50;7.00;;;;;;;-1.17;74.96;98954.42;103439;1253;138163;-70
2023/03/11 21:52:06;;;;;;;14.30;7.00;;;;;;;-1.16;75.04;98962.10;103432;1253;97031;-70
2023/03/11 21:54:34;;;;;;;10.50;6.40;;;;;;;-1.16;75.11;98962.77;102565;1254;1002749;-70
2023/03/11 21:57:01;;;;;;;13.00;6.70;;;;;;;-1.15;75.30;98961.40;103437;1255;107587;-69
2023/03/11 21:59:39;;;;;;;14.10;6.90;;;;;;;-1.14;75.23;98963.10;103286;1256;138692;-70
2023/03/11 22:02:12;;;;;;;13.10;8.00;;;;;;;-1.12;75.39;98962.58;103413;1253;107397;-69
2023/03/11 22:04:39;;;;;;;16.30;8.00;;;;;;;-1.11;75.52;98964.27;103386;1251;96450;-70
2023/03/11 22:07:07;;;;;;;16.40;8.10;;;;;;;-1.09;75.49;98964.94;102593;1255;1002711;-70
2023/03/11 22:09:34;;;;;;;15.80;8.30;;;;;;;-1.08;75.43;98964.09;103450;1252;107790;-70
2023/03/11 22:12:02;;;;;;;14.60;7.20;;;;;;;-1.08;75.47;98970.06;103347;1256;138131;-70
2023/03/11 22:14:30;;;;;;;11.90;6.80;;;;;;;-1.08;75.25;98969.73;103484;1253;106640;-69
2023/03/11 22:17:00;;;;;;;12.60;7.70;;;;;;;-1.07;75.33;98972.46;103486;1254;96476;-70
2023/03/11 22:19:35;;;;;;;;;;;;;;;-1.07;75.31;98974.34;103331;1251;109459;-70
2023/03/11 22:22:03;;;;;;;9.80;6.50;;;;;;;-1.08;75.32;98977.56;102868;1255;1002942;-70
2023/03/11 22:24:40;;;;;;;12.80;6.60;;;;;;;-1.09;75.38;98977.05;103300;1251;139178;-70
2023/03/11 22:27:08;;;;;;;13.30;6.90;;;;;;;-1.11;75.41;98980.30;102680;1251;1003232;-70
2023/03/11 22:29:38;;;;;;;11.00;6.80;;;;;;;-1.13;75.56;98983.39;103275;1255;160225;-70
2023/03/11 22:32:08;;;;;;;12.80;6.70;;;;;;;-1.15;75.41;98983.75;103402;1256;111139;-70
2023/03/11 22:34:36;;;;;;;12.90;6.60;;;;;;;-1.17;75.53;98991.10;103458;1252;108214;-70
2023/03/11 22:37:03;;;;;;;10.90;6.60;;;;;;;-1.20;75.50;98990.27;103382;1255;138279;-70
2023/03/11 22:39:33;;;;;;;13.70;7.10;;;;;;;-1.22;75.49;98992.66;102563;1251;1002881;-70
2023/03/11 22:42:00;;;;;;;16.20;8.50;;;;;;;-1.24;75.49;98995.40;102589;1255;1002923;-70
2023/03/11 22:44:30;;;;;;;12.90;7.50;;;;;;;-1.26;75.78;98997.97;103546;1256;110014;-70
2023/03/11 22:47:18;;;;;;;12.20;6.80;;;;;;;-1.28;75.57;99005.63;103352;1256;138261;-71
2023/03/11 22:50:06;;;;;;;12.20;6.70;;;;;;;-1.31;75.77;99010.42;103554;1251;96325;-69
2023/03/11 22:52:36;;;;;;;10.90;6.80;;;;;;;-1.33;75.92;99010.95;103436;1253;107961;-69
2023/03/11 22:55:16;;;;;;;12.40;6.90;;;;;;;-1.35;75.83;99010.79;103266;1256;138307;-69
2023/03/11 22:57:54;;;;;;;13.10;7.30;;;;;;;-1.36;76.04;99012.16;103415;1255;111457;-69
2023/03/11 23:00:25;;;;;;;14.90;7.30;;;;;;;-1.38;76.03;99006.88;101729;1253;1003625;-70
2023/03/11 23:03:03;;;;;;;14.50;8.00;;;;;;;-1.40;76.14;99008.60;103680;1253;96315;-69
2023/03/11 23:05:30;;;;;;;16.60;7.30;;;;;;;-1.42;76.18;99002.98;102622;1254;1002972;-69
2023/03/11 23:07:58;;;;;;;14.20;7.70;;;;;;;-1.42;76.23;99003.33;102946;1251;1002216;-69
2023/03/11 23:10:25;;;;;;;15.90;7.90;;;;;;;-1.44;76.37;99007.58;103471;1251;109820;-69
2023/03/11 23:12:53;;;;;;;15.10;7.80;;;;;;;-1.46;76.48;99008.09;103361;1255;138695;-69
2023/03/11 23:15:23;;;;;;;14.90;7.80;;;;;;;-1.48;76.32;99010.14;103479;1252;96440;-70
2023/03/11 23:17:54;;;;;;;14.40;7.30;;;;;;;-1.51;76.49;99013.40;103274;1256;137977;-70
2023/03/11 23:20:21;;;;;;;12.70;7.20;;;;;;;-1.52;76.41;99016.14;103565;1251;96425;-69
2023/03/11 23:22:48;;;;;;;13.10;7.30;;;;;;;-1.54;76.43;99016.84;103431;1252;110024;-69
2023/03/11 23:25:38;;;;;;;13.20;7.50;;;;;;;-1.55;76.36;99020.41;103438;1255;107877;-69
2023/03/11 23:28:07;;;;;;;10.80;7.10;;;;;;;-1.58;76.39;99021.11;102722;1252;1003395;-70
2023/03/11 23:30:35;;;;;;;12.70;7.40;;;;;;;-1.60;76.52;99029.98;101903;1251;1003535;-70
2023/03/11 23:33:03;;;;;;;13.00;7.10;;;;;;;-1.61;76.74;99030.15;103506;1253;96512;-69
2023/03/11 23:35:43;;;;;;;13.60;7.60;;;;;;;-1.62;76.57;99031.67;103348;1255;138170;-70
2023/03/11 23:38:13;;;;;;;10.50;6.90;;;;;;;-1.63;76.64;99033.02;102675;1256;1002516;-68
2023/03/11 23:41:00;;;;;;;12.00;7.00;;;;;;;-1.64;76.81;99034.39;103381;1253;96417;-68
2023/03/11 23:43:38;;;;;;;11.70;7.10;;;;;;;-1.64;76.77;99036.61;103433;1251;108253;-68
2023/03/11 23:46:07;;;;;;;13.50;7.70;;;;;;;-1.64;76.80;99037.98;103375;1253;96432;-69
2023/03/11 23:48:34;;;;;;;13.80;8.00;;;;;;;-1.64;77.09;99036.79;102652;1251;1003612;-68
2023/03/11 23:51:03;;;;;;;12.40;8.00;;;;;;;-1.66;77.09;99035.60;103502;1256;107604;-68
2023/03/11 23:53:34;;;;;;;14.30;8.00;;;;;;;-1.67;77.09;99039.36;103398;1254;138330;-69
2023/03/11 23:56:01;;;;;;;13.40;8.60;;;;;;;-1.68;77.33;99041.91;103550;1251;107932;-69
2023/03/11 23:58:31;;;;;;;13.90;7.90;;;;;;;-1.69;77.47;99044.82;102699;1254;1003827;-70
